Kennedy Grace — WDG9120 — position and weather

sailwx.info

Track history (hours):
 
Tides and Currents Weather Stations Pressure Air Temp Water Temp Dewpoint Dewpoint Depression Visibility Wind Speed Wind Dir Waves Ship Positions

Kennedy Grace

Owner: Settoon Towing, LLC, Houma, LA. More information available from US FCC via Universal Licensing System and Coast Guard Vessel Documentation Center.

Last reported at 2018-Jun-21 06:06 UTC. Time now 2018-Jun-21 23:49 UTC.
Position N 29°47' W 095°06'.

; draft 3 m.

Type: Towing. MMSI: 367584530.

Date/timePositionNaut miles runAvg speedWind from/ knotsBaromVisibWave heightAir tempDewpointWater temp
2018-Jun-21 06:06N 29°47' W 095°06'0 2.2
2018-Jun-21 05:55N 29°47' W 095°05'0 1.0
2018-Jun-21 05:30N 29°47' W 095°05'5 0.2
2018-Jun-20 01:30N 29°44' W 095°10'  
2018-Jun-16 08:54N 29°42' W 095°01'2 6.0
2018-Jun-16 08:30N 29°41' W 094°59'3 5.5
2018-Jun-16 08:00N 29°38' W 094°58'3 6.1
2018-Jun-16 07:29N 29°35' W 094°56'11 5.4
2018-Jun-16 05:21N 29°25' W 094°50'2 5.4
2018-Jun-16 04:57N 29°23' W 094°49'2 4.7
2018-Jun-16 04:30N 29°22' W 094°48'4 1.0
2018-Jun-16 00:17N 29°21' W 094°43'0 0.1
2018-Jun-15 23:58N 29°21' W 094°43'0 0.0
2018-Jun-15 21:51N 29°21' W 094°43'0 0.8
2018-Jun-15 21:30N 29°21' W 094°43'3 6.9
2018-Jun-15 21:00N 29°21' W 094°47'14 7.5
2018-Jun-15 19:12N 29°33' W 094°55'2 7.4
2018-Jun-15 18:58N 29°34' W 094°56'4 7.3
2018-Jun-15 18:24N 29°38' W 094°58'3 7.2
2018-Jun-15 17:55N 29°41' W 094°59'1 0.1
2018-Jun-15 01:16N 29°42' W 094°60'2 5.4
2018-Jun-15 00:59N 29°41' W 094°59'3 5.4
2018-Jun-15 00:30N 29°38' W 094°58'3 5.2
2018-Jun-15 00:00N 29°36' W 094°57'13 5.7
2018-Jun-14 21:47N 29°25' W 094°49'2 5.9
2018-Jun-14 21:30N 29°23' W 094°49'2 3.0
2018-Jun-14 21:00N 29°22' W 094°50'3 5.5
2018-Jun-14 20:30N 29°23' W 094°53'2 4.4
2018-Jun-14 20:00N 29°22' W 094°55'0 0.0
2018-Jun-14 17:44N 29°22' W 094°55'0 0.0
2018-Jun-14 16:18N 29°22' W 094°55'0 0.0
2018-Jun-14 16:00N 29°22' W 094°55'0 0.0
2018-Jun-14 15:16N 29°22' W 094°55'0 0.0
2018-Jun-14 14:38N 29°22' W 094°55'0 0.0
2018-Jun-14 14:30N 29°22' W 094°55'0 0.0
2018-Jun-14 13:30N 29°22' W 094°55'0 0.0
2018-Jun-14 12:58N 29°22' W 094°55'0 0.0
2018-Jun-14 12:27N 29°22' W 094°55'0 0.0
2018-Jun-14 10:59N 29°22' W 094°55'0 0.0
2018-Jun-14 10:18N 29°22' W 094°55'0 0.0
2018-Jun-14 09:51N 29°22' W 094°55'0 0.0
2018-Jun-14 09:29N 29°22' W 094°55'0 0.0
2018-Jun-14 09:00N 29°22' W 094°55'0 0.0
2018-Jun-14 08:15N 29°22' W 094°55'0 0.0
2018-Jun-14 07:19N 29°22' W 094°55'0 0.0
2018-Jun-14 06:49N 29°22' W 094°55'2 4.2
2018-Jun-14 06:23N 29°23' W 094°53'0 0.0
2018-Jun-14 06:00N 29°23' W 094°53'0 0.0
2018-Jun-14 05:30N 29°23' W 094°53'0 0.0
2018-Jun-14 04:59N 29°23' W 094°53'2 3.6
2018-Jun-14 04:30N 29°23' W 094°51'2 3.5
2018-Jun-14 03:48N 29°24' W 094°49'5 8.4
2018-Jun-14 03:09N 29°29' W 094°52'1 7.8
2018-Jun-14 02:59N 29°30' W 094°53'4 7.2
2018-Jun-14 02:25N 29°34' W 094°55'3 6.8
2018-Jun-14 01:57N 29°36' W 094°57'3 7.3
2018-Jun-14 01:30N 29°39' W 094°58'9 0.4
2018-Jun-13 04:09N 29°45' W 095°06'5 1.4
2018-Jun-13 00:23N 29°42' W 095°01'4 6.6
2018-Jun-12 23:51N 29°39' W 094°58'3 7.0
2018-Jun-12 23:29N 29°37' W 094°57'4 7.4
2018-Jun-12 22:58N 29°34' W 094°55'10 7.2
2018-Jun-12 21:33N 29°25' W 094°49'1 6.9
2018-Jun-12 21:28N 29°24' W 094°49'2 5.5
2018-Jun-12 21:00N 29°22' W 094°49'3 5.6
2018-Jun-12 20:30N 29°23' W 094°52'0 0.0
2018-Jun-12 20:00N 29°23' W 094°52'0 0.0
2018-Jun-12 19:30N 29°23' W 094°52'0 0.0
2018-Jun-12 18:59N 29°23' W 094°52'0 0.0
2018-Jun-12 18:29N 29°23' W 094°52'0 0.0
2018-Jun-12 18:00N 29°23' W 094°52'0 0.0
2018-Jun-12 17:29N 29°23' W 094°52'1 0.9
2018-Jun-12 16:48N 29°23' W 094°53'1 2.1
2018-Jun-12 16:30N 29°23' W 094°52'0 0.0
2018-Jun-12 16:00N 29°23' W 094°52'0 0.0
2018-Jun-12 15:30N 29°23' W 094°52'0 0.0
2018-Jun-12 15:00N 29°23' W 094°52'0 0.0
2018-Jun-12 14:30N 29°23' W 094°52'0 0.0
2018-Jun-12 13:58N 29°23' W 094°52'0 0.0
2018-Jun-12 13:30N 29°23' W 094°52'0 0.0
2018-Jun-12 13:00N 29°23' W 094°52'0 0.0
2018-Jun-12 12:28N 29°23' W 094°52'0 0.0
2018-Jun-12 11:48N 29°23' W 094°52'0 0.0
2018-Jun-12 11:30N 29°23' W 094°52'0 0.0
2018-Jun-12 10:59N 29°23' W 094°52'0 0.0
2018-Jun-12 02:34N 29°23' W 094°52'0 0.0
2018-Jun-12 02:30N 29°23' W 094°52'0 0.0
2018-Jun-12 02:00N 29°23' W 094°52'0 0.0
2018-Jun-12 01:30N 29°23' W 094°52'0 0.0
2018-Jun-12 01:00N 29°23' W 094°52'0 0.0
2018-Jun-12 00:30N 29°23' W 094°52'0 0.0
2018-Jun-11 23:59N 29°23' W 094°52'0 0.0
2018-Jun-11 23:30N 29°23' W 094°52'0 0.0
2018-Jun-11 23:00N 29°23' W 094°52'0 0.0
2018-Jun-11 22:30N 29°23' W 094°52'0 0.0
2018-Jun-11 21:57N 29°23' W 094°52'0 0.0
2018-Jun-11 21:25N 29°23' W 094°52'0 0.0
2018-Jun-11 21:00N 29°23' W 094°52'0 0.0
2018-Jun-11 20:28N 29°23' W 094°52'0 0.0
2018-Jun-11 19:39N 29°23' W 094°52'0 0.0
2018-Jun-11 19:30N 29°23' W 094°52'0 0.0
2018-Jun-11 18:29N 29°23' W 094°52'0 0.0
2018-Jun-11 17:52N 29°23' W 094°52'0 0.0
2018-Jun-11 17:29N 29°23' W 094°52'0 0.0
2018-Jun-11 16:59N 29°23' W 094°52'0 0.0
2018-Jun-11 16:16N 29°23' W 094°52'0 0.0
2018-Jun-11 15:01N 29°23' W 094°52'0 0.0
2018-Jun-11 14:57N 29°23' W 094°52'0 0.0
2018-Jun-11 14:30N 29°23' W 094°52'0 0.0
2018-Jun-11 13:59N 29°23' W 094°52'0 0.0
2018-Jun-11 13:24N 29°23' W 094°52'0 0.0
2018-Jun-11 12:59N 29°23' W 094°52'0 0.0
2018-Jun-11 12:29N 29°23' W 094°52'0 0.0
2018-Jun-11 11:57N 29°23' W 094°52'0 0.0
2018-Jun-11 11:30N 29°23' W 094°52'0 0.5
2018-Jun-11 10:56N 29°23' W 094°52'1 1.1
2018-Jun-11 10:21N 29°23' W 094°53'2 6.9
2018-Jun-11 10:00N 29°22' W 094°50'12 4.5
2018-Jun-11 07:21N 29°33' W 094°55'6 7.0
2018-Jun-11 06:31N 29°39' W 094°58'0 7.4
2018-Jun-11 06:30N 29°39' W 094°58'  
Track history (hours):
 
Tides and Currents Weather Stations Pressure Air Temp Water Temp Dewpoint Dewpoint Depression Visibility Wind Speed Wind Dir Waves Ship Positions

Kennedy Grace

Owner: Settoon Towing, LLC, Houma, LA. More information available from US FCC via Universal Licensing System and Coast Guard Vessel Documentation Center.

Last reported at 2018-Jun-21 06:06 UTC. Time now 2018-Jun-21 23:49 UTC.
Position N 29°47' W 095°06'.

; draft 3 m.

Type: Towing. MMSI: 367584530.

Date/timePositionNaut miles runAvg speedWind from/ knotsBaromVisibWave heightAir tempDewpointWater temp
2018-Jun-21 06:06N 29°47' W 095°06'0 2.2
2018-Jun-21 05:55N 29°47' W 095°05'0 1.0
2018-Jun-21 05:30N 29°47' W 095°05'5 0.2
2018-Jun-20 01:30N 29°44' W 095°10'  
2018-Jun-16 08:54N 29°42' W 095°01'2 6.0
2018-Jun-16 08:30N 29°41' W 094°59'3 5.5
2018-Jun-16 08:00N 29°38' W 094°58'3 6.1
2018-Jun-16 07:29N 29°35' W 094°56'11 5.4
2018-Jun-16 05:21N 29°25' W 094°50'2 5.4
2018-Jun-16 04:57N 29°23' W 094°49'2 4.7
2018-Jun-16 04:30N 29°22' W 094°48'4 1.0
2018-Jun-16 00:17N 29°21' W 094°43'0 0.1
2018-Jun-15 23:58N 29°21' W 094°43'0 0.0
2018-Jun-15 21:51N 29°21' W 094°43'0 0.8
2018-Jun-15 21:30N 29°21' W 094°43'3 6.9
2018-Jun-15 21:00N 29°21' W 094°47'14 7.5
2018-Jun-15 19:12N 29°33' W 094°55'2 7.4
2018-Jun-15 18:58N 29°34' W 094°56'4 7.3
2018-Jun-15 18:24N 29°38' W 094°58'3 7.2
2018-Jun-15 17:55N 29°41' W 094°59'1 0.1
2018-Jun-15 01:16N 29°42' W 094°60'2 5.4
2018-Jun-15 00:59N 29°41' W 094°59'3 5.4
2018-Jun-15 00:30N 29°38' W 094°58'3 5.2
2018-Jun-15 00:00N 29°36' W 094°57'13 5.7
2018-Jun-14 21:47N 29°25' W 094°49'2 5.9
2018-Jun-14 21:30N 29°23' W 094°49'2 3.0
2018-Jun-14 21:00N 29°22' W 094°50'3 5.5
2018-Jun-14 20:30N 29°23' W 094°53'2 4.4
2018-Jun-14 20:00N 29°22' W 094°55'0 0.0
2018-Jun-14 17:44N 29°22' W 094°55'0 0.0
2018-Jun-14 16:18N 29°22' W 094°55'0 0.0
2018-Jun-14 16:00N 29°22' W 094°55'0 0.0
2018-Jun-14 15:16N 29°22' W 094°55'0 0.0
2018-Jun-14 14:38N 29°22' W 094°55'0 0.0
2018-Jun-14 14:30N 29°22' W 094°55'0 0.0
2018-Jun-14 13:30N 29°22' W 094°55'0 0.0
2018-Jun-14 12:58N 29°22' W 094°55'0 0.0
2018-Jun-14 12:27N 29°22' W 094°55'0 0.0
2018-Jun-14 10:59N 29°22' W 094°55'0 0.0
2018-Jun-14 10:18N 29°22' W 094°55'0 0.0
2018-Jun-14 09:51N 29°22' W 094°55'0 0.0
2018-Jun-14 09:29N 29°22' W 094°55'0 0.0
2018-Jun-14 09:00N 29°22' W 094°55'0 0.0
2018-Jun-14 08:15N 29°22' W 094°55'0 0.0
2018-Jun-14 07:19N 29°22' W 094°55'0 0.0
2018-Jun-14 06:49N 29°22' W 094°55'2 4.2
2018-Jun-14 06:23N 29°23' W 094°53'0 0.0
2018-Jun-14 06:00N 29°23' W 094°53'0 0.0
2018-Jun-14 05:30N 29°23' W 094°53'0 0.0
2018-Jun-14 04:59N 29°23' W 094°53'2 3.6
2018-Jun-14 04:30N 29°23' W 094°51'2 3.5
2018-Jun-14 03:48N 29°24' W 094°49'5 8.4
2018-Jun-14 03:09N 29°29' W 094°52'1 7.8
2018-Jun-14 02:59N 29°30' W 094°53'4 7.2
2018-Jun-14 02:25N 29°34' W 094°55'3 6.8
2018-Jun-14 01:57N 29°36' W 094°57'3 7.3
2018-Jun-14 01:30N 29°39' W 094°58'9 0.4
2018-Jun-13 04:09N 29°45' W 095°06'5 1.4
2018-Jun-13 00:23N 29°42' W 095°01'4 6.6
2018-Jun-12 23:51N 29°39' W 094°58'3 7.0
2018-Jun-12 23:29N 29°37' W 094°57'4 7.4
2018-Jun-12 22:58N 29°34' W 094°55'10 7.2
2018-Jun-12 21:33N 29°25' W 094°49'1 6.9
2018-Jun-12 21:28N 29°24' W 094°49'2 5.5
2018-Jun-12 21:00N 29°22' W 094°49'3 5.6
2018-Jun-12 20:30N 29°23' W 094°52'0 0.0
2018-Jun-12 20:00N 29°23' W 094°52'0 0.0
2018-Jun-12 19:30N 29°23' W 094°52'0 0.0
2018-Jun-12 18:59N 29°23' W 094°52'0 0.0
2018-Jun-12 18:29N 29°23' W 094°52'0 0.0
2018-Jun-12 18:00N 29°23' W 094°52'0 0.0
2018-Jun-12 17:29N 29°23' W 094°52'1 0.9
2018-Jun-12 16:48N 29°23' W 094°53'1 2.1
2018-Jun-12 16:30N 29°23' W 094°52'0 0.0
2018-Jun-12 16:00N 29°23' W 094°52'0 0.0
2018-Jun-12 15:30N 29°23' W 094°52'0 0.0
2018-Jun-12 15:00N 29°23' W 094°52'0 0.0
2018-Jun-12 14:30N 29°23' W 094°52'0 0.0
2018-Jun-12 13:58N 29°23' W 094°52'0 0.0
2018-Jun-12 13:30N 29°23' W 094°52'0 0.0
2018-Jun-12 13:00N 29°23' W 094°52'0 0.0
2018-Jun-12 12:28N 29°23' W 094°52'0 0.0
2018-Jun-12 11:48N 29°23' W 094°52'0 0.0
2018-Jun-12 11:30N 29°23' W 094°52'0 0.0
2018-Jun-12 10:59N 29°23' W 094°52'0 0.0
2018-Jun-12 02:34N 29°23' W 094°52'0 0.0
2018-Jun-12 02:30N 29°23' W 094°52'0 0.0
2018-Jun-12 02:00N 29°23' W 094°52'0 0.0
2018-Jun-12 01:30N 29°23' W 094°52'0 0.0
2018-Jun-12 01:00N 29°23' W 094°52'0 0.0
2018-Jun-12 00:30N 29°23' W 094°52'0 0.0
2018-Jun-11 23:59N 29°23' W 094°52'0 0.0
2018-Jun-11 23:30N 29°23' W 094°52'0 0.0
2018-Jun-11 23:00N 29°23' W 094°52'0 0.0
2018-Jun-11 22:30N 29°23' W 094°52'0 0.0
2018-Jun-11 21:57N 29°23' W 094°52'0 0.0
2018-Jun-11 21:25N 29°23' W 094°52'0 0.0
2018-Jun-11 21:00N 29°23' W 094°52'0 0.0
2018-Jun-11 20:28N 29°23' W 094°52'0 0.0
2018-Jun-11 19:39N 29°23' W 094°52'0 0.0
2018-Jun-11 19:30N 29°23' W 094°52'0 0.0
2018-Jun-11 18:29N 29°23' W 094°52'0 0.0
2018-Jun-11 17:52N 29°23' W 094°52'0 0.0
2018-Jun-11 17:29N 29°23' W 094°52'0 0.0
2018-Jun-11 16:59N 29°23' W 094°52'0 0.0
2018-Jun-11 16:16N 29°23' W 094°52'0 0.0
2018-Jun-11 15:01N 29°23' W 094°52'0 0.0
2018-Jun-11 14:57N 29°23' W 094°52'0 0.0
2018-Jun-11 14:30N 29°23' W 094°52'0 0.0
2018-Jun-11 13:59N 29°23' W 094°52'0 0.0
2018-Jun-11 13:24N 29°23' W 094°52'0 0.0
2018-Jun-11 12:59N 29°23' W 094°52'0 0.0
2018-Jun-11 12:29N 29°23' W 094°52'0 0.0
2018-Jun-11 11:57N 29°23' W 094°52'0 0.0
2018-Jun-11 11:30N 29°23' W 094°52'0 0.5
2018-Jun-11 10:56N 29°23' W 094°52'1 1.1
2018-Jun-11 10:21N 29°23' W 094°53'2 6.9
2018-Jun-11 10:00N 29°22' W 094°50'12 4.5
2018-Jun-11 07:21N 29°33' W 094°55'6 7.0
2018-Jun-11 06:31N 29°39' W 094°58'0 7.4
2018-Jun-11 06:30N 29°39' W 094°58'  

Dump ship's entire track history